Redlands, CA (92373)

00:56 PDT le 25 août 2016 (GMT -0700)
Redlands Ca | | Change Station

Alt. 1496 ft 34.05 °N, 117.17 °W | Updated 15 seconds ago

Clear
Ciel dégagé
68.4 ° F
Paraît 68.4 ° F
N
0.0
Vent Variable Vent de Est
Gusts 0.0 mph

Aujourd'hui
Haut(e) -- | Bas -- ° F
--% Risque de précip.
Hier
Haut(e) -- | Bas -- ° F
Precip. -- pouce
Pression 29.97 pouce
Visibilité 10.0 Miles terrestres
Nuages Ciel dégagé
Point de rosée 61 ° F
Humidité 77%
Précipitations 0.00 pouce
Profondeur de la couche neigeuse Non disponible.
6:17 AM 7:22 PM
Lune gibbeuse décroissante, 48% visible
METAR KSBD 250754Z AUTO 26003KT 10SM CLR 23/14 A2997 RMK AO2 T02250136
Pression 29.97 pouce
Visibilité 10.0 Miles terrestres
Nuages Ciel dégagé
Point de rosée 61 ° F
Humidité 77%
Précipitations 0.00 pouce
Profondeur de la couche neigeuse Non disponible.
6:17 AM 7:22 PM
Lune gibbeuse décroissante, 48% visible
METAR KSBD 250754Z AUTO 26003KT 10SM CLR 23/14 A2997 RMK AO2 T02250136

10-Day Weather Forecast

Almanac

Astronomie

Aug. 25, 2016 Lever Coucher
Temps réel
Crépuscule civil
Crépuscule nautique
Crépuscule astronomique
Lune
Durée de lumière visible
Longueur du jour
Tomorrow will be .
, % of the Moon is Illuminated

Extrêmes aujourd'hui

State Highs State Lows

Community

WunderPhotos

Upload Photos

1,934,814 Photos téléchargées !

WunderBlog® & News

Nearby

Qualité de l'air

  Qualité de l'air Indice de la qualité de l'air Polluant
Not available.

Épaisseur de neige

Station Depth Altitude

Activité sismique

Ville Distance Mag. Time & Date
Minimum magnitude displayed is 2.5.

Températures des eaux côtières

Lieu Température

Stations

Stations météo à proximité

Emplacement de la station Température Refroidissement éolien Point de rosée Humidité Vent Precip. Alt. Mise à jour Type
                   

Watches & Warnings

There are currently no watches in effect.